Time;durP1;ratioP1;P1;durP2;ratioP2;P2;SDS_P1;SDS_P2;PMS_P1;PMS_P2;Temp;Humidity;BMP_temperature;BMP_pressure;BME280_temperature;BME280_humidity;BME280_pressure;Samples;Min_cycle;Max_cycle;Signal;HPM_P1;HPM_P2
2023/02/01 00:00:27;;;;;;;14.57;3.00;;;5.30;99.90;;;;;;4971088;28;20233;-76
2023/02/01 00:02:53;;;;;;;17.87;3.30;;;5.30;99.90;;;;;;4971283;28;20325;-76
2023/02/01 00:05:21;;;;;;;13.57;3.27;;;5.20;99.90;;;;;;4972141;28;20602;-76
2023/02/01 00:07:49;;;;;;;11.10;2.87;;;5.20;99.90;;;;;;4971919;28;20233;-76
2023/02/01 00:10:16;;;;;;;17.73;3.43;;;5.20;99.90;;;;;;4972175;28;20201;-76
2023/02/01 00:12:44;;;;;;;11.47;2.90;;;5.10;99.90;;;;;;4971193;28;20244;-77
2023/02/01 00:15:11;;;;;;;10.63;2.63;;;5.10;99.90;;;;;;4971122;28;20238;-76
2023/02/01 00:17:38;;;;;;;15.80;4.53;;;5.10;99.90;;;;;;4971286;28;20269;-76
2023/02/01 00:20:06;;;;;;;13.47;2.50;;;5.10;99.90;;;;;;4969853;28;20661;-76
2023/02/01 00:22:34;;;;;;;18.37;2.70;;;5.10;99.90;;;;;;4971949;28;20309;-77
2023/02/01 00:25:00;;;;;;;21.03;4.13;;;5.10;99.90;;;;;;4971256;28;20202;-76
2023/02/01 00:27:27;;;;;;;11.93;2.73;;;5.20;99.90;;;;;;4972166;28;20209;-77
2023/02/01 00:29:56;;;;;;;17.67;3.77;;;5.20;99.90;;;;;;4971327;28;20206;-76
2023/02/01 00:32:23;;;;;;;13.70;3.10;;;5.10;99.90;;;;;;4971368;28;20287;-76
2023/02/01 00:34:50;;;;;;;16.23;2.93;;;5.00;99.90;;;;;;4972491;28;20257;-77
2023/02/01 00:37:17;;;;;;;14.93;3.00;;;5.00;99.90;;;;;;4970920;28;20249;-76
2023/02/01 00:39:44;;;;;;;18.47;3.67;;;5.00;99.90;;;;;;4972215;28;20244;-77
2023/02/01 00:42:11;;;;;;;20.77;4.53;;;5.00;99.90;;;;;;4970617;28;20241;-76
2023/02/01 00:44:38;;;;;;;11.33;3.17;;;5.00;99.90;;;;;;4970995;28;20716;-76
2023/02/01 00:47:06;;;;;;;16.87;3.70;;;5.00;99.90;;;;;;4970919;28;20284;-76
2023/02/01 00:49:33;;;;;;;12.27;2.73;;;5.00;99.90;;;;;;4971809;28;20202;-77
2023/02/01 00:52:00;;;;;;;13.60;2.87;;;5.00;99.90;;;;;;4970708;28;20209;-76
2023/02/01 00:54:27;;;;;;;15.47;2.80;;;5.00;99.90;;;;;;4973338;28;20566;-76
2023/02/01 00:56:54;;;;;;;19.87;3.43;;;4.90;99.90;;;;;;4974456;28;20304;-76
2023/02/01 00:59:21;;;;;;;10.67;3.13;;;4.80;99.90;;;;;;4974567;28;20333;-76
2023/02/01 01:01:48;;;;;;;11.27;2.73;;;4.80;99.90;;;;;;4975164;28;20237;-76
2023/02/01 01:04:16;;;;;;;18.73;3.03;;;4.90;99.90;;;;;;4974160;28;20336;-76
2023/02/01 01:06:43;;;;;;;15.77;3.23;;;4.90;99.90;;;;;;4975462;28;20234;-76
2023/02/01 01:09:11;;;;;;;18.53;3.07;;;4.90;99.90;;;;;;4974632;28;20656;-76
2023/02/01 01:11:39;;;;;;;23.33;2.97;;;4.80;99.90;;;;;;4973643;28;20237;-76
2023/02/01 01:14:08;;;;;;;11.57;3.30;;;4.80;99.90;;;;;;4974103;28;20257;-76
2023/02/01 01:16:35;;;;;;;13.27;2.57;;;4.70;99.90;;;;;;4955905;28;20289;-76
2023/02/01 01:19:02;;;;;;;20.97;3.20;;;4.70;99.90;;;;;;4971047;28;20293;-76
2023/02/01 01:21:31;;;;;;;17.40;2.87;;;4.70;99.90;;;;;;4973373;28;20309;-76
2023/02/01 01:23:58;;;;;;;15.93;2.73;;;4.70;99.90;;;;;;4973699;28;20308;-76
2023/02/01 01:26:26;;;;;;;12.90;2.47;;;4.60;99.90;;;;;;4974257;28;20716;-76
2023/02/01 01:28:55;;;;;;;18.17;3.53;;;4.70;99.90;;;;;;4971033;28;20198;-76
2023/02/01 01:31:22;;;;;;;13.83;2.73;;;4.70;99.90;;;;;;4974739;28;20700;-76
2023/02/01 01:33:50;;;;;;;17.60;3.07;;;4.60;99.90;;;;;;4961758;28;20249;-76
2023/02/01 01:36:17;;;;;;;12.33;2.57;;;4.60;99.90;;;;;;4971873;28;20260;-77
2023/02/01 01:38:46;;;;;;;14.07;3.47;;;4.50;99.90;;;;;;4974405;28;20245;-76
2023/02/01 01:41:15;;;;;;;18.20;3.20;;;4.60;99.90;;;;;;4974445;28;20672;-76
2023/02/01 01:43:54;;;;;;;12.77;3.00;;;4.60;99.90;;;;;;4973894;28;20271;-76
2023/02/01 01:46:22;;;;;;;12.77;2.63;;;4.60;99.90;;;;;;4974582;28;20205;-76
2023/02/01 01:48:53;;;;;;;11.63;3.70;;;4.60;99.90;;;;;;4973845;28;20233;-76
2023/02/01 01:51:24;;;;;;;14.03;2.70;;;4.70;99.90;;;;;;4973737;28;20730;-76
2023/02/01 01:54:00;;;;;;;12.03;3.07;;;4.70;99.90;;;;;;4973688;28;20316;-76
2023/02/01 01:56:29;;;;;;;14.97;3.07;;;4.60;99.90;;;;;;4974048;28;20209;-76
2023/02/01 01:58:56;;;;;;;18.80;3.33;;;4.60;99.90;;;;;;4974004;28;20248;-76
2023/02/01 02:01:23;;;;;;;14.73;3.00;;;4.60;99.90;;;;;;4974271;28;20237;-76
2023/02/01 02:03:52;;;;;;;14.33;3.20;;;4.60;99.90;;;;;;4974219;28;20308;-76
2023/02/01 02:06:31;;;;;;;17.50;3.13;;;4.60;99.90;;;;;;4973791;28;20237;-76
2023/02/01 02:08:59;;;;;;;11.87;2.53;;;4.50;99.90;;;;;;4967643;28;20292;-76
2023/02/01 02:11:26;;;;;;;16.33;3.33;;;4.50;99.90;;;;;;4974589;28;20209;-76
2023/02/01 02:13:55;;;;;;;17.20;3.20;;;4.40;99.90;;;;;;4972569;28;20292;-76
2023/02/01 02:16:49;;;;;;;10.80;3.17;;;4.40;99.90;;;;;;4973897;28;20256;-76
2023/02/01 02:19:57;;;;;;;12.53;2.63;;;4.40;99.90;;;;;;4959893;28;20233;-76
2023/02/01 02:22:53;;;;;;;19.77;2.93;;;4.50;99.90;;;;;;4971965;28;20293;-76
2023/02/01 02:25:59;;;;;;;17.23;3.27;;;4.50;99.90;;;;;;4942748;28;20304;-76
2023/02/01 02:28:59;;;;;;;16.03;3.23;;;4.50;99.90;;;;;;4961773;28;20252;-76
2023/02/01 02:31:47;;;;;;;13.67;3.07;;;4.60;99.90;;;;;;4967766;28;20301;-76
2023/02/01 02:34:23;;;;;;;17.87;2.93;;;4.70;99.90;;;;;;4973770;28;20213;-76
2023/02/01 02:37:00;;;;;;;18.23;3.60;;;4.60;99.90;;;;;;4973281;28;20288;-76
2023/02/01 02:39:40;;;;;;;12.97;3.47;;;4.70;99.90;;;;;;4973775;28;20229;-76
2023/02/01 02:47:55;;;;;;;19.73;3.00;;;4.90;99.90;;;;;;4973181;28;20679;-76
2023/02/01 03:04:30;;;;;;;11.13;3.23;;;5.10;99.90;;;;;;4960120;28;20641;-76
2023/02/01 03:06:58;;;;;;;11.53;2.77;;;5.10;99.90;;;;;;4973511;28;20293;-76
2023/02/01 03:09:32;;;;;;;12.70;3.00;;;5.10;99.90;;;;;;4973073;28;20237;-76
2023/02/01 03:14:50;;;;;;;14.90;3.57;;;5.10;99.90;;;;;;4973134;28;20566;-76
2023/02/01 03:17:23;;;;;;;13.40;3.33;;;5.10;99.90;;;;;;4973317;28;20210;-76
2023/02/01 03:19:52;;;;;;;16.67;3.43;;;5.10;99.90;;;;;;4973050;28;20293;-76
2023/02/01 03:22:24;;;;;;;12.87;3.63;;;5.20;99.90;;;;;;4972848;28;20284;-76
2023/02/01 03:24:54;;;;;;;19.30;4.93;;;5.10;99.90;;;;;;4973189;28;20265;-76
2023/02/01 03:27:25;;;;;;;16.47;3.43;;;5.20;99.90;;;;;;4973119;28;20208;-76
2023/02/01 03:30:00;;;;;;;16.53;3.30;;;5.10;99.90;;;;;;4972626;28;20237;-76
2023/02/01 03:32:28;;;;;;;17.57;3.73;;;5.20;99.90;;;;;;4972612;28;20653;-76
2023/02/01 03:34:55;;;;;;;12.90;3.07;;;5.30;99.90;;;;;;4972875;28;20255;-76
2023/02/01 03:37:27;;;;;;;15.67;3.73;;;5.30;99.90;;;;;;4973007;28;20201;-76
2023/02/01 03:40:00;;;;;;;18.00;4.70;;;5.30;99.90;;;;;;4972789;28;20281;-76
2023/02/01 03:42:34;;;;;;;13.43;3.40;;;5.30;99.90;;;;;;4955022;28;20234;-76
2023/02/01 03:45:08;;;;;;;13.50;4.07;;;5.30;99.90;;;;;;4953538;29;20223;-76
2023/02/01 03:47:38;;;;;;;20.37;4.20;;;5.30;99.90;;;;;;4953768;29;20206;-76
2023/02/01 03:50:09;;;;;;;19.27;3.83;;;5.30;99.90;;;;;;4953650;29;20656;-76
2023/02/01 03:52:41;;;;;;;11.23;3.60;;;5.30;99.90;;;;;;4953131;29;20241;-76
2023/02/01 03:55:09;;;;;;;15.17;4.43;;;5.30;99.90;;;;;;4953439;29;20206;-76
2023/02/01 03:57:40;;;;;;;19.87;4.90;;;5.30;99.90;;;;;;4953488;29;20306;-76
2023/02/01 04:00:16;;;;;;;13.00;3.53;;;5.30;99.90;;;;;;4953545;29;20237;-75
2023/02/01 04:02:43;;;;;;;13.77;3.77;;;5.20;99.90;;;;;;4959906;28;20300;-76
2023/02/01 04:05:10;;;;;;;18.20;4.37;;;5.20;99.90;;;;;;4968094;28;20253;-75
2023/02/01 04:07:38;;;;;;;15.23;3.70;;;5.20;99.90;;;;;;4963292;28;20233;-76
2023/02/01 04:10:06;;;;;;;14.63;3.73;;;5.20;99.90;;;;;;4976527;28;20202;-76
2023/02/01 04:12:33;;;;;;;11.60;3.50;;;5.10;99.90;;;;;;4971886;28;20638;-76
2023/02/01 04:15:00;;;;;;;13.77;4.07;;;5.00;99.90;;;;;;4976190;28;20264;-76
2023/02/01 04:17:27;;;;;;;15.03;4.23;;;5.00;99.90;;;;;;4989878;28;20197;-76
2023/02/01 04:19:54;;;;;;;15.10;3.67;;;5.10;99.90;;;;;;4988931;28;20295;-76
2023/02/01 04:22:21;;;;;;;12.57;3.97;;;5.10;99.90;;;;;;4991416;28;20639;-75
2023/02/01 04:24:49;;;;;;;17.80;4.00;;;5.10;99.90;;;;;;4979549;28;20225;-76
2023/02/01 04:27:16;;;;;;;16.37;4.27;;;5.10;99.90;;;;;;4972310;28;20647;-75
2023/02/01 04:29:44;;;;;;;15.20;4.03;;;5.20;99.90;;;;;;4972105;28;20284;-76
2023/02/01 04:32:12;;;;;;;17.50;4.60;;;5.20;99.90;;;;;;4973795;28;20245;-75
2023/02/01 04:34:39;;;;;;;19.40;4.13;;;5.30;99.90;;;;;;4974520;28;20320;-76
2023/02/01 04:37:05;;;;;;;14.80;4.10;;;5.30;99.90;;;;;;4975631;28;20665;-76
2023/02/01 04:39:32;;;;;;;14.53;4.03;;;5.30;99.90;;;;;;4974837;28;20233;-75
2023/02/01 04:42:01;;;;;;;16.63;3.90;;;5.20;99.90;;;;;;4975557;28;20245;-75
2023/02/01 04:44:28;;;;;;;16.87;4.00;;;5.20;99.90;;;;;;4975757;28;20261;-75
2023/02/01 04:46:55;;;;;;;15.63;4.40;;;5.30;99.90;;;;;;4974853;28;20244;-75
2023/02/01 04:49:22;;;;;;;18.07;4.13;;;5.30;99.90;;;;;;4975477;28;20244;-75
2023/02/01 04:51:49;;;;;;;15.53;4.57;;;5.40;99.90;;;;;;4974258;28;20280;-75
2023/02/01 04:54:16;;;;;;;15.43;3.63;;;5.40;99.90;;;;;;4975047;28;20304;-75
2023/02/01 04:56:43;;;;;;;14.30;3.90;;;5.40;99.90;;;;;;4975758;28;20237;-76
2023/02/01 04:59:13;;;;;;;16.37;4.47;;;5.50;99.90;;;;;;4973868;28;20243;-75
2023/02/01 05:01:40;;;;;;;16.83;3.77;;;5.50;99.90;;;;;;4974423;28;20286;-75
2023/02/01 05:04:07;;;;;;;18.57;4.00;;;5.50;99.90;;;;;;4974448;28;20268;-75
2023/02/01 05:06:34;;;;;;;15.80;4.13;;;5.50;99.90;;;;;;4975449;28;20293;-76
2023/02/01 05:09:00;;;;;;;13.67;3.83;;;5.50;99.90;;;;;;4974604;28;20284;-75
2023/02/01 05:14:13;;;;;;;14.57;3.63;;;5.30;99.90;;;;;;4974503;28;20660;-75
2023/02/01 05:16:40;;;;;;;15.53;4.20;;;5.20;99.90;;;;;;4975094;28;20309;-76
2023/02/01 05:19:07;;;;;;;16.93;4.80;;;5.20;99.90;;;;;;4974464;28;20292;-76
2023/02/01 05:21:34;;;;;;;14.03;4.30;;;5.20;99.90;;;;;;4955140;29;20257;-76
2023/02/01 05:24:10;;;;;;;18.23;3.90;;;5.20;99.90;;;;;;4954673;29;20976;-76
2023/02/01 05:26:37;;;;;;;14.80;3.97;;;5.30;99.90;;;;;;4955990;29;20202;-76
2023/02/01 05:29:04;;;;;;;16.57;4.10;;;5.20;99.90;;;;;;4954677;29;20242;-76
2023/02/01 05:31:32;;;;;;;13.63;3.40;;;5.30;99.90;;;;;;4975012;28;20198;-76
2023/02/01 05:33:59;;;;;;;11.67;3.90;;;5.30;99.90;;;;;;4974752;28;20297;-76
2023/02/01 05:36:26;;;;;;;13.03;4.10;;;5.30;99.90;;;;;;4975163;28;20229;-73
2023/02/01 05:38:53;;;;;;;12.93;3.27;;;5.20;99.90;;;;;;4974461;28;20581;-73
2023/02/01 05:41:20;;;;;;;17.60;4.10;;;5.20;99.90;;;;;;4971842;28;20641;-72
2023/02/01 05:43:47;;;;;;;14.40;4.40;;;5.30;99.90;;;;;;4974587;28;20233;-72
2023/02/01 05:46:14;;;;;;;16.60;4.47;;;5.30;99.90;;;;;;4974604;28;20244;-72
2023/02/01 05:48:43;;;;;;;13.43;3.87;;;5.30;99.90;;;;;;4973896;28;20201;-72
2023/02/01 05:51:11;;;;;;;17.20;3.57;;;5.30;99.90;;;;;;4974588;28;20202;-72
2023/02/01 05:53:38;;;;;;;13.20;2.73;;;5.30;99.90;;;;;;4973594;28;20703;-72
2023/02/01 05:56:05;;;;;;;9.73;2.90;;;5.40;99.90;;;;;;4973859;28;20249;-72
2023/02/01 05:58:33;;;;;;;13.27;4.50;;;5.40;99.90;;;;;;4974594;28;20634;-72
2023/02/01 06:01:01;;;;;;;10.20;3.20;;;5.40;99.90;;;;;;4974125;28;20264;-72
2023/02/01 06:03:28;;;;;;;12.90;3.47;;;5.40;99.90;;;;;;4974035;28;20644;-72
2023/02/01 06:05:56;;;;;;;12.10;3.73;;;5.40;99.90;;;;;;4974031;28;20232;-72
2023/02/01 06:08:25;;;;;;;12.70;3.43;;;5.40;99.90;;;;;;4974060;28;20209;-73
2023/02/01 06:10:58;;;;;;;14.07;3.30;;;5.40;99.90;;;;;;4974512;28;20250;-72
2023/02/01 06:13:25;;;;;;;10.80;3.40;;;5.50;99.90;;;;;;4973237;28;20210;-72
2023/02/01 06:15:52;;;;;;;12.40;3.40;;;5.50;99.90;;;;;;4973884;28;20244;-72
2023/02/01 06:18:19;;;;;;;12.40;3.17;;;5.40;99.90;;;;;;4973537;28;20216;-72
2023/02/01 06:20:46;;;;;;;10.20;3.10;;;5.40;99.90;;;;;;4974194;28;20233;-73
2023/02/01 06:23:14;;;;;;;11.10;3.40;;;5.40;99.90;;;;;;4973817;28;20649;-72
2023/02/01 06:25:41;;;;;;;14.20;3.63;;;5.40;99.90;;;;;;4974026;28;20261;-72
2023/02/01 06:28:08;;;;;;;10.83;2.67;;;5.30;99.90;;;;;;4973229;28;20292;-72
2023/02/01 06:30:35;;;;;;;11.17;3.17;;;5.30;99.90;;;;;;4972903;28;20743;-73
2023/02/01 06:33:02;;;;;;;9.83;3.23;;;5.30;99.90;;;;;;4972718;28;20221;-72
2023/02/01 06:35:29;;;;;;;11.17;4.40;;;5.40;99.90;;;;;;4972923;28;20245;-72
2023/02/01 06:37:57;;;;;;;7.93;3.00;;;5.40;99.90;;;;;;4972647;28;20208;-73
2023/02/01 06:40:26;;;;;;;12.37;3.40;;;5.40;99.90;;;;;;4974062;28;20643;-72
2023/02/01 06:42:53;;;;;;;13.70;3.10;;;5.40;99.90;;;;;;4973282;28;20596;-72
2023/02/01 06:45:19;;;;;;;7.13;3.03;;;5.40;99.90;;;;;;4973831;28;20258;-72
2023/02/01 06:47:46;;;;;;;8.17;2.60;;;5.30;99.90;;;;;;4973512;28;20329;-72
2023/02/01 06:50:13;;;;;;;12.80;3.00;;;5.20;99.90;;;;;;4973111;28;20619;-72
2023/02/01 06:52:40;;;;;;;11.33;3.10;;;5.10;99.90;;;;;;4972953;28;20285;-73
2023/02/01 06:55:08;;;;;;;12.47;2.67;;;5.10;99.90;;;;;;4973635;28;20256;-72
2023/02/01 06:57:36;;;;;;;7.20;2.67;;;5.00;99.90;;;;;;4973303;28;20249;-72
2023/02/01 07:00:04;;;;;;;11.03;3.40;;;5.10;99.90;;;;;;4973348;28;20237;-72
2023/02/01 07:02:32;;;;;;;16.27;3.20;;;5.10;99.90;;;;;;4972862;28;20274;-73
2023/02/01 07:04:58;;;;;;;13.50;3.53;;;5.10;99.90;;;;;;4971322;28;20256;-73
2023/02/01 07:07:25;;;;;;;8.30;3.30;;;5.10;99.90;;;;;;4971999;28;20664;-72
2023/02/01 07:09:52;;;;;;;18.43;2.97;;;5.10;99.90;;;;;;4973023;28;20244;-73
2023/02/01 07:12:20;;;;;;;12.50;3.60;;;5.10;99.90;;;;;;4972801;28;20234;-73
2023/02/01 07:14:48;;;;;;;11.60;3.10;;;5.00;99.90;;;;;;4972117;28;20238;-73
2023/02/01 07:17:15;;;;;;;13.63;3.60;;;5.00;99.90;;;;;;4972955;28;20292;-72
2023/02/01 07:19:42;;;;;;;10.07;3.37;;;5.00;99.90;;;;;;4973327;28;20652;-73
2023/02/01 07:22:09;;;;;;;14.03;3.07;;;5.00;99.90;;;;;;4972713;28;20288;-73
2023/02/01 07:24:36;;;;;;;17.13;3.20;;;5.10;99.90;;;;;;4972416;28;20217;-73
2023/02/01 07:27:03;;;;;;;15.77;3.17;;;5.10;99.90;;;;;;4973228;28;20420;-72
2023/02/01 07:29:30;;;;;;;12.20;3.10;;;5.10;99.90;;;;;;4972183;28;20240;-72
2023/02/01 07:32:00;;;;;;;14.23;3.30;;;5.20;99.90;;;;;;4971241;28;20296;-72
2023/02/01 07:34:27;;;;;;;14.47;2.87;;;5.20;99.90;;;;;;4973192;28;20256;-72
2023/02/01 07:36:54;;;;;;;6.63;2.90;;;5.20;99.90;;;;;;4973002;28;20611;-72
2023/02/01 07:39:20;;;;;;;11.97;3.07;;;5.30;99.90;;;;;;4972967;28;20285;-73
2023/02/01 07:41:48;;;;;;;14.03;4.30;;;5.20;99.90;;;;;;4972310;28;20668;-72
2023/02/01 07:44:15;;;;;;;14.87;3.60;;;5.30;99.90;;;;;;4972831;28;20264;-72
2023/02/01 07:46:43;;;;;;;11.27;3.17;;;5.40;99.90;;;;;;4972791;28;20206;-72
2023/02/01 07:49:13;;;;;;;11.30;3.37;;;5.40;99.90;;;;;;4972809;28;20205;-72
2023/02/01 07:51:40;;;;;;;9.80;2.90;;;5.50;99.90;;;;;;4971838;28;20213;-73
2023/02/01 07:54:07;;;;;;;8.80;3.00;;;5.60;99.90;;;;;;4972236;28;20259;-72
2023/02/01 07:56:34;;;;;;;11.83;2.90;;;5.70;99.90;;;;;;4971769;28;20249;-73
2023/02/01 07:59:01;;;;;;;20.13;4.70;;;5.80;99.90;;;;;;4970129;28;20652;-72
2023/02/01 08:01:30;;;;;;;11.87;3.30;;;5.80;99.90;;;;;;4973060;28;20216;-72
2023/02/01 08:03:58;;;;;;;13.80;3.20;;;5.90;99.90;;;;;;4972154;28;20304;-73
2023/02/01 08:06:28;;;;;;;11.20;3.07;;;5.80;99.90;;;;;;4975193;28;20632;-73
2023/02/01 08:08:55;;;;;;;13.13;3.30;;;5.80;99.90;;;;;;4976496;28;20241;-72
2023/02/01 08:11:24;;;;;;;11.43;2.90;;;5.90;99.90;;;;;;4976598;28;20564;-72
2023/02/01 08:13:51;;;;;;;13.63;2.90;;;5.90;99.90;;;;;;4975323;28;20288;-73
2023/02/01 08:16:20;;;;;;;8.57;2.70;;;5.90;99.90;;;;;;4976539;28;20256;-72
2023/02/01 08:18:47;;;;;;;10.63;3.37;;;5.90;99.90;;;;;;4976429;28;20240;-72
2023/02/01 08:21:16;;;;;;;11.60;3.47;;;6.00;99.90;;;;;;4976234;28;20285;-72
2023/02/01 08:23:45;;;;;;;10.90;3.03;;;6.00;99.90;;;;;;4975708;28;20206;-72
2023/02/01 08:26:14;;;;;;;12.80;3.27;;;6.00;99.90;;;;;;4975861;28;20213;-72
2023/02/01 08:28:42;;;;;;;16.87;3.87;;;6.00;99.90;;;;;;4974221;28;20272;-73
2023/02/01 08:31:11;;;;;;;13.47;3.30;;;6.00;99.90;;;;;;4975741;28;20248;-72
2023/02/01 08:33:38;;;;;;;20.37;4.03;;;6.00;99.90;;;;;;4975062;28;20208;-72
2023/02/01 08:36:06;;;;;;;13.17;3.20;;;6.00;99.90;;;;;;4974945;28;20205;-72
2023/02/01 08:38:35;;;;;;;13.27;3.70;;;6.00;99.90;;;;;;4974188;28;20237;-72
2023/02/01 08:41:07;;;;;;;12.03;2.93;;;6.20;99.90;;;;;;4975304;28;20256;-73
2023/02/01 08:43:34;;;;;;;18.67;3.10;;;6.20;99.90;;;;;;4975683;28;20206;-72
2023/02/01 08:46:01;;;;;;;14.60;3.10;;;6.20;99.90;;;;;;4974802;28;20256;-73
2023/02/01 08:48:28;;;;;;;11.00;2.50;;;6.20;99.90;;;;;;4973846;28;20237;-73
2023/02/01 08:50:55;;;;;;;13.90;2.80;;;6.30;99.90;;;;;;4975860;28;20288;-73
2023/02/01 08:53:22;;;;;;;9.47;2.60;;;6.30;99.90;;;;;;4974895;28;20225;-73
2023/02/01 08:55:49;;;;;;;15.40;2.87;;;6.30;99.90;;;;;;4975230;28;20256;-73
2023/02/01 08:58:36;;;;;;;10.83;2.60;;;6.30;99.90;;;;;;4975823;28;20661;-72
2023/02/01 09:01:05;;;;;;;14.10;2.60;;;6.50;99.90;;;;;;4975636;28;20241;-73
2023/02/01 09:03:32;;;;;;;8.40;2.80;;;6.50;99.90;;;;;;4975014;28;20538;-72
2023/02/01 09:06:01;;;;;;;8.63;2.67;;;6.50;99.90;;;;;;4975139;28;20715;-72
2023/02/01 09:08:28;;;;;;;16.63;3.20;;;6.50;99.90;;;;;;4976001;28;20581;-73
2023/02/01 09:10:58;;;;;;;11.17;2.33;;;6.80;99.90;;;;;;4975337;28;20664;-72
2023/02/01 09:13:27;;;;;;;10.03;2.80;;;6.90;99.90;;;;;;4975871;28;20625;-72
2023/02/01 09:15:53;;;;;;;9.87;2.93;;;6.90;99.90;;;;;;4975278;28;20216;-72
2023/02/01 09:18:20;;;;;;;13.20;2.67;;;6.80;99.90;;;;;;4975989;28;20578;-73
2023/02/01 09:20:47;;;;;;;9.07;2.63;;;6.90;99.90;;;;;;4975628;28;20212;-72
2023/02/01 09:23:14;;;;;;;10.13;2.23;;;6.90;99.90;;;;;;4975927;28;20213;-73
2023/02/01 09:25:41;;;;;;;10.33;2.50;;;7.00;99.90;;;;;;4975298;28;20225;-72
2023/02/01 09:28:08;;;;;;;7.07;1.97;;;7.00;99.90;;;;;;4975798;28;20668;-72
2023/02/01 09:30:37;;;;;;;11.27;2.57;;;7.00;99.90;;;;;;4974951;28;20209;-72
2023/02/01 09:33:05;;;;;;;9.67;2.47;;;7.00;99.90;;;;;;4975743;28;20210;-73
2023/02/01 09:35:31;;;;;;;15.57;2.77;;;6.90;99.90;;;;;;4975858;28;20321;-72
2023/02/01 09:37:58;;;;;;;13.70;4.17;;;6.90;99.90;;;;;;4975441;28;20213;-73
2023/02/01 09:40:25;;;;;;;8.23;2.90;;;6.80;99.90;;;;;;4974824;28;20210;-72
2023/02/01 09:43:10;;;;;;;10.63;2.77;;;6.80;99.90;;;;;;4974872;28;20562;-73
2023/02/01 09:45:45;;;;;;;10.50;2.80;;;6.70;99.90;;;;;;4975106;28;20237;-73
2023/02/01 09:48:16;;;;;;;10.23;2.97;;;6.70;99.90;;;;;;4975997;28;20215;-72
2023/02/01 09:50:48;;;;;;;13.40;3.70;;;6.80;99.90;;;;;;4974913;28;20269;-73
2023/02/01 09:53:22;;;;;;;9.97;3.07;;;6.80;99.90;;;;;;4975209;28;20213;-73
2023/02/01 09:55:50;;;;;;;10.70;2.63;;;6.80;99.90;;;;;;4975193;28;20201;-72
2023/02/01 09:58:23;;;;;;;14.47;3.07;;;6.90;99.90;;;;;;4975296;28;20202;-72
2023/02/01 10:00:55;;;;;;;15.10;3.10;;;6.90;99.90;;;;;;4975605;28;20209;-73
2023/02/01 10:03:24;;;;;;;11.80;3.77;;;6.90;99.90;;;;;;4974810;28;20217;-72
2023/02/01 10:06:28;;;;;;;9.77;3.20;;;6.90;99.90;;;;;;4974787;28;20688;-73
2023/02/01 10:09:12;;;;;;;12.07;3.00;;;7.00;99.90;;;;;;4966958;28;20212;-73
2023/02/01 10:11:50;;;;;;;11.53;2.97;;;6.90;99.90;;;;;;4974843;28;20201;-72
2023/02/01 10:14:39;;;;;;;8.93;3.03;;;7.00;99.90;;;;;;4974878;28;20205;-72
2023/02/01 10:17:19;;;;;;;13.63;3.03;;;7.00;99.90;;;;;;4973332;28;20652;-72
2023/02/01 10:19:57;;;;;;;13.73;3.07;;;7.00;99.90;;;;;;4974788;28;20664;-72
2023/02/01 10:22:33;;;;;;;10.33;3.03;;;7.10;99.90;;;;;;4974068;28;20396;-72
2023/02/01 10:25:08;;;;;;;8.87;2.30;;;7.20;99.90;;;;;;4974975;28;20228;-72
2023/02/01 10:27:37;;;;;;;10.03;2.90;;;7.20;99.90;;;;;;4973601;28;20221;-72
2023/02/01 10:30:15;;;;;;;9.27;3.20;;;7.30;99.90;;;;;;4974880;28;20212;-73
2023/02/01 10:32:43;;;;;;;11.80;3.83;;;7.40;99.90;;;;;;4974494;28;20209;-72
2023/02/01 10:35:23;;;;;;;18.87;4.10;;;7.40;99.90;;;;;;4974387;28;20217;-73
2023/02/01 10:37:50;;;;;;;10.13;2.80;;;7.40;99.90;;;;;;4973751;28;20248;-72
2023/02/01 10:40:21;;;;;;;11.27;2.80;;;7.40;99.90;;;;;;4974615;28;20723;-72
2023/02/01 10:42:50;;;;;;;13.40;3.70;;;7.40;99.90;;;;;;4973967;28;20671;-72
2023/02/01 10:45:20;;;;;;;14.67;3.27;;;7.50;99.90;;;;;;4974276;28;20205;-73
2023/02/01 10:47:50;;;;;;;14.53;3.03;;;7.50;99.90;;;;;;4973933;28;20201;-73
2023/02/01 10:50:26;;;;;;;13.07;3.00;;;7.50;99.90;;;;;;4974583;28;20679;-72
2023/02/01 10:52:58;;;;;;;10.97;2.70;;;7.50;99.90;;;;;;4974300;28;20220;-73
2023/02/01 10:55:35;;;;;;;11.63;2.63;;;7.40;99.90;;;;;;4974080;28;20600;-73
2023/02/01 10:58:04;;;;;;;8.43;2.17;;;7.40;99.90;;;;;;4973049;28;20233;-72
2023/02/01 11:00:43;;;;;;;11.63;2.20;;;7.40;99.90;;;;;;4973482;28;20606;-73
2023/02/01 11:03:33;;;;;;;11.67;2.87;;;7.40;99.90;;;;;;4973914;28;20237;-73
2023/02/01 11:06:00;;;;;;;11.53;2.50;;;7.40;99.90;;;;;;4974069;28;20316;-72
2023/02/01 11:08:27;;;;;;;13.77;2.80;;;7.30;99.90;;;;;;4974127;28;20201;-72
2023/02/01 11:10:59;;;;;;;6.77;2.50;;;7.30;99.90;;;;;;4973310;28;20209;-73
2023/02/01 11:13:31;;;;;;;15.47;3.00;;;7.30;99.90;;;;;;4973576;28;20205;-72
2023/02/01 11:15:59;;;;;;;15.90;3.07;;;7.30;99.90;;;;;;4974042;28;20248;-72
2023/02/01 11:18:30;;;;;;;11.83;2.57;;;7.30;99.90;;;;;;4973915;28;20221;-73
2023/02/01 11:20:57;;;;;;;16.67;3.93;;;7.30;99.90;;;;;;4973854;28;20201;-73
2023/02/01 11:23:27;;;;;;;15.33;3.03;;;7.30;99.90;;;;;;4973403;28;20193;-72
2023/02/01 11:25:56;;;;;;;10.13;2.23;;;7.30;99.90;;;;;;4973973;28;20230;-73
2023/02/01 11:28:28;;;;;;;7.27;4.10;;;7.30;99.90;;;;;;4973298;28;20205;-73
2023/02/01 11:30:57;;;;;;;15.47;2.97;;;7.30;99.90;;;;;;4973394;28;20722;-72
2023/02/01 11:33:30;;;;;;;7.13;2.10;;;7.20;99.90;;;;;;4973467;28;20572;-73
2023/02/01 11:35:58;;;;;;;15.23;2.90;;;7.20;99.90;;;;;;4973612;28;20227;-72
2023/02/01 11:38:29;;;;;;;11.70;2.60;;;7.20;99.90;;;;;;4973094;28;20579;-72
2023/02/01 11:41:11;;;;;;;11.53;3.07;;;7.30;99.90;;;;;;4973277;28;20202;-73
2023/02/01 11:43:38;;;;;;;16.63;2.97;;;7.40;99.90;;;;;;4972548;28;20209;-72
2023/02/01 11:46:24;;;;;;;10.93;2.83;;;7.30;99.90;;;;;;4972726;28;20225;-72
2023/02/01 11:48:53;;;;;;;12.47;2.80;;;7.20;99.90;;;;;;4973726;28;20209;-72
2023/02/01 11:51:35;;;;;;;12.47;3.47;;;7.30;99.90;;;;;;4973649;28;20209;-72
2023/02/01 11:54:25;;;;;;;15.67;3.17;;;7.20;99.90;;;;;;4973144;28;20217;-72
2023/02/01 11:57:14;;;;;;;15.83;2.97;;;7.20;99.90;;;;;;4972636;28;20213;-73
2023/02/01 12:00:03;;;;;;;9.03;2.53;;;7.20;99.90;;;;;;4973610;28;20594;-72
2023/02/01 12:02:49;;;;;;;8.57;2.30;;;7.30;99.90;;;;;;4973230;28;20639;-73
2023/02/01 12:05:32;;;;;;;11.77;2.97;;;7.30;99.90;;;;;;4972270;28;20216;-73
2023/02/01 12:08:09;;;;;;;14.13;2.90;;;7.30;99.90;;;;;;4973067;28;20233;-73
2023/02/01 12:10:46;;;;;;;6.20;2.63;;;7.20;99.90;;;;;;4973320;28;20224;-73
2023/02/01 12:13:24;;;;;;;15.87;3.33;;;7.20;99.90;;;;;;4973079;28;20212;-72
2023/02/01 12:16:02;;;;;;;10.30;2.77;;;7.10;99.90;;;;;;4972658;28;20567;-73
2023/02/01 12:18:59;;;;;;;11.63;3.20;;;7.00;99.90;;;;;;4973057;28;20263;-73
2023/02/01 12:21:50;;;;;;;12.70;2.90;;;7.10;99.90;;;;;;4948103;28;20213;-72
2023/02/01 12:24:44;;;;;;;9.80;2.70;;;7.10;99.90;;;;;;4973217;28;20657;-73
2023/02/01 12:27:36;;;;;;;16.50;3.10;;;7.10;99.90;;;;;;4968545;28;20668;-73
2023/02/01 12:30:31;;;;;;;15.67;3.40;;;7.30;99.90;;;;;;4972946;28;20641;-73
2023/02/01 12:33:09;;;;;;;11.03;3.23;;;7.30;99.90;;;;;;4953706;29;20222;-72
2023/02/01 12:35:48;;;;;;;9.27;3.77;;;7.30;99.90;;;;;;4952915;29;20206;-73
2023/02/01 12:38:27;;;;;;;17.87;3.63;;;7.20;99.90;;;;;;4964037;28;20592;-72
2023/02/01 12:41:07;;;;;;;12.80;3.10;;;7.20;99.90;;;;;;4973033;28;20209;-76
2023/02/01 12:43:40;;;;;;;17.33;3.73;;;7.20;99.90;;;;;;4972001;28;20240;-76
2023/02/01 12:46:13;;;;;;;10.33;3.00;;;7.00;99.90;;;;;;4972226;28;20605;-76
2023/02/01 12:48:47;;;;;;;12.80;3.07;;;6.90;99.90;;;;;;4971103;28;20244;-76
2023/02/01 12:51:18;;;;;;;7.47;2.50;;;6.80;99.90;;;;;;4974025;28;20240;-76
2023/02/01 12:53:52;;;;;;;11.23;2.63;;;6.60;99.90;;;;;;4974131;28;20292;-76
2023/02/01 12:56:25;;;;;;;16.33;4.63;;;6.50;99.90;;;;;;4976101;28;20277;-76
2023/02/01 12:58:56;;;;;;;11.23;3.30;;;6.60;99.90;;;;;;4973373;28;20233;-76
2023/02/01 13:01:29;;;;;;;9.67;2.63;;;6.60;99.90;;;;;;4975679;28;20640;-76
2023/02/01 13:04:05;;;;;;;11.53;3.33;;;6.60;99.90;;;;;;4975299;28;20241;-76
2023/02/01 13:06:38;;;;;;;12.43;3.30;;;6.70;99.90;;;;;;4973789;28;20221;-76
2023/02/01 13:09:15;;;;;;;16.00;3.60;;;6.70;99.90;;;;;;4974372;28;20260;-76
2023/02/01 13:11:46;;;;;;;11.37;3.53;;;6.70;99.90;;;;;;4966690;28;20680;-76
2023/02/01 13:14:28;;;;;;;6.93;2.50;;;6.70;99.90;;;;;;4975503;28;20209;-76
2023/02/01 13:17:01;;;;;;;8.53;3.47;;;6.60;99.90;;;;;;4975442;28;20206;-82
2023/02/01 13:19:35;;;;;;;7.80;2.90;;;6.80;99.90;;;;;;4974050;28;20301;-76
2023/02/01 13:22:07;;;;;;;10.77;3.10;;;6.70;99.90;;;;;;4975137;28;20241;-75
2023/02/01 13:24:42;;;;;;;7.97;3.00;;;6.60;99.90;;;;;;4974595;28;20213;-76
2023/02/01 13:27:12;;;;;;;9.33;3.17;;;6.50;99.90;;;;;;4974020;28;20220;-76
2023/02/01 13:29:49;;;;;;;5.40;2.20;;;6.40;99.90;;;;;;4975523;28;20751;-75
2023/02/01 13:32:48;;;;;;;7.77;2.57;;;6.30;99.90;;;;;;4974300;28;20667;-76